Time;durP1;ratioP1;P1;durP2;ratioP2;P2;SDS_P1;SDS_P2;PMS_P1;PMS_P2;Temp;Humidity;BMP_temperature;BMP_pressure;BME280_temperature;BME280_humidity;BME280_pressure;Samples;Min_cycle;Max_cycle;Signal;HPM_P1;HPM_P2
2022/10/12 00:03:03;;;;;;;9.63;2.30;;;;;;;5.49;91.03;102433.53;10163182;29;20429;-75
2022/10/12 00:08:05;;;;;;;6.55;2.58;;;;;;;5.44;91.10;102433.25;10143679;29;20090;-75
2022/10/12 00:13:08;;;;;;;12.48;3.13;;;;;;;5.39;91.18;102429.47;10154777;29;20426;-75
2022/10/12 00:18:09;;;;;;;10.32;3.05;;;;;;;5.33;91.08;102434.25;10157318;29;20060;-74
2022/10/12 00:23:13;;;;;;;10.95;2.70;;;;;;;5.25;91.07;102431.13;10141576;29;20070;-75
2022/10/12 00:28:15;;;;;;;8.90;2.10;;;;;;;5.19;91.40;102441.13;10127121;29;20055;-74
2022/10/12 00:33:17;;;;;;;6.55;2.60;;;;;;;5.12;91.21;102446.75;10175694;29;20049;-75
2022/10/12 00:38:21;;;;;;;8.13;2.28;;;;;;;5.03;91.37;102439.25;10160839;29;20059;-75
2022/10/12 00:43:29;;;;;;;6.28;2.13;;;;;;;4.98;91.35;102444.91;10162548;29;20059;-75
2022/10/12 00:48:32;;;;;;;9.25;2.28;;;;;;;4.92;91.57;102445.41;10153903;29;20580;-75
2022/10/12 00:53:39;;;;;;;7.50;2.47;;;;;;;4.85;91.33;102440.59;10164533;29;20092;-75
2022/10/12 00:58:41;;;;;;;6.20;2.30;;;;;;;4.84;91.47;102446.59;10819255;23;20131;-75
2022/10/12 01:03:43;;;;;;;11.68;2.58;;;;;;;4.71;91.55;102435.38;10140633;29;20072;-75
2022/10/12 01:08:46;;;;;;;6.18;2.30;;;;;;;4.65;91.54;102437.56;10139303;29;20055;-75
2022/10/12 01:13:48;;;;;;;9.40;2.38;;;;;;;4.59;91.65;102450.13;10110512;29;20445;-75
2022/10/12 01:18:59;;;;;;;6.75;2.40;;;;;;;4.57;91.68;102443.94;10131636;29;20535;-75
2022/10/12 01:24:23;;;;;;;3.78;1.80;;;;;;;4.51;91.81;102436.63;10133515;29;20059;-75
2022/10/12 01:30:03;;;;;;;6.28;2.45;;;;;;;4.51;91.76;102434.03;10116796;29;20080;-76
2022/10/12 01:35:33;;;;;;;4.25;1.90;;;;;;;4.45;91.84;102435.34;10116389;29;20052;-75
2022/10/12 01:40:41;;;;;;;5.97;2.37;;;;;;;4.37;91.85;102424.44;10087519;29;20053;-75
2022/10/12 01:45:43;;;;;;;6.45;2.00;;;;;;;4.31;91.87;102424.00;10127697;29;20077;-75
2022/10/12 01:50:51;;;;;;;9.23;2.63;;;;;;;4.29;91.78;102430.78;10115783;29;20477;-75
2022/10/12 01:56:19;;;;;;;12.18;1.88;;;;;;;4.26;91.98;102421.06;10121423;29;20553;-75
2022/10/12 02:01:38;;;;;;;11.88;2.45;;;;;;;4.22;92.18;102416.50;10131415;29;20051;-75
2022/10/12 02:06:46;;;;;;;7.77;2.50;;;;;;;4.22;92.22;102411.31;10127641;29;20053;-75
2022/10/12 02:11:53;;;;;;;7.20;2.47;;;;;;;4.17;92.08;102410.06;10140256;29;20085;-75
2022/10/12 02:16:59;;;;;;;8.77;2.22;;;;;;;4.10;92.07;102407.84;10141701;29;20057;-75
2022/10/12 02:22:04;;;;;;;5.38;2.28;;;;;;;4.04;92.13;102403.16;10130070;29;20594;-75
2022/10/12 02:27:09;;;;;;;4.85;1.80;;;;;;;3.99;92.10;102396.75;10141712;29;20052;-75
2022/10/12 02:32:28;;;;;;;10.75;2.88;;;;;;;3.94;92.17;102390.34;10104798;29;20072;-75
2022/10/12 02:37:43;;;;;;;6.18;2.60;;;;;;;3.88;92.29;102383.94;10119708;29;20057;-75
2022/10/12 02:42:51;;;;;;;4.90;2.00;;;;;;;3.84;92.25;102383.59;10134356;29;20098;-75
2022/10/12 02:48:22;;;;;;;5.20;1.95;;;;;;;3.78;92.33;102380.59;10116785;29;20049;-75
2022/10/12 02:53:27;;;;;;;5.85;2.88;;;;;;;3.74;92.28;102383.75;10132149;29;20079;-75
2022/10/12 02:58:29;;;;;;;5.47;1.92;;;;;;;3.71;92.38;102381.88;10132299;29;20057;-75
2022/10/12 03:03:30;;;;;;;8.40;2.47;;;;;;;3.68;92.28;102371.28;10115910;29;20041;-75
2022/10/12 03:08:32;;;;;;;10.13;2.50;;;;;;;3.63;92.23;102367.44;10133971;29;20045;-75
2022/10/12 03:13:34;;;;;;;6.72;2.53;;;;;;;3.61;92.22;102362.16;10124934;29;20048;-75
2022/10/12 03:18:37;;;;;;;5.72;2.30;;;;;;;3.58;92.56;102361.94;10127085;29;20052;-75
2022/10/12 03:23:38;;;;;;;7.75;2.55;;;;;;;3.58;92.35;102364.53;10141322;29;20044;-75
2022/10/12 03:28:40;;;;;;;8.02;2.45;;;;;;;3.55;92.50;102369.50;10144007;29;20062;-75
2022/10/12 03:33:42;;;;;;;7.22;2.60;;;;;;;3.45;92.43;102361.88;10143525;29;20123;-75
2022/10/12 03:38:44;;;;;;;10.60;2.75;;;;;;;3.41;92.57;102358.19;10145996;29;20132;-75
2022/10/12 03:43:47;;;;;;;7.90;2.45;;;;;;;3.38;92.37;102359.63;10140772;29;20112;-75
2022/10/12 03:48:48;;;;;;;6.80;2.92;;;;;;;3.29;92.72;102353.00;10124978;29;20086;-75
2022/10/12 03:53:50;;;;;;;8.88;2.60;;;;;;;3.30;92.45;102360.00;10128074;29;20101;-75
2022/10/12 03:58:52;;;;;;;6.10;2.20;;;;;;;3.21;92.55;102348.97;10127379;29;20466;-75
2022/10/12 04:03:54;;;;;;;8.00;2.85;;;;;;;3.18;92.75;102344.47;10114132;29;20315;-75
2022/10/12 04:08:56;;;;;;;10.32;2.60;;;;;;;3.14;92.52;102342.47;10126472;29;20084;-75
2022/10/12 04:13:58;;;;;;;7.70;2.50;;;;;;;3.12;92.62;102346.63;10108984;29;20105;-75
2022/10/12 04:19:00;;;;;;;7.43;3.38;;;;;;;3.08;92.54;102338.50;10120761;29;20179;-75
2022/10/12 04:24:02;;;;;;;4.18;2.10;;;;;;;3.01;92.46;102339.75;10141240;29;20101;-75
2022/10/12 04:29:04;;;;;;;10.10;2.35;;;;;;;2.97;92.78;102342.91;10130005;29;20101;-75
2022/10/12 04:34:06;;;;;;;7.70;2.15;;;;;;;2.95;92.75;102347.09;10121658;29;20052;-75
2022/10/12 04:39:07;;;;;;;5.32;2.42;;;;;;;2.92;92.82;102352.94;10139299;29;20057;-75
2022/10/12 04:44:09;;;;;;;5.25;2.30;;;;;;;2.90;92.86;102357.09;10124363;29;20074;-75
2022/10/12 04:49:11;;;;;;;8.73;2.30;;;;;;;2.85;92.71;102353.25;10121992;29;20686;-75
2022/10/12 04:54:13;;;;;;;8.50;2.25;;;;;;;2.82;92.80;102360.78;10126565;29;20082;-75
2022/10/12 04:59:15;;;;;;;4.97;2.13;;;;;;;2.76;92.78;102360.34;10128716;29;20056;-75
2022/10/12 05:04:17;;;;;;;11.60;3.35;;;;;;;2.74;92.73;102361.94;10139332;29;20056;-75
2022/10/12 05:09:19;;;;;;;11.43;2.70;;;;;;;2.70;92.94;102355.63;10124449;29;20059;-75
2022/10/12 05:14:20;;;;;;;7.05;2.60;;;;;;;2.67;93.01;102347.63;10129662;29;20056;-75
2022/10/12 05:19:23;;;;;;;5.57;2.58;;;;;;;2.67;92.89;102351.91;10125949;29;20041;-75
2022/10/12 05:24:24;;;;;;;11.45;2.85;;;;;;;2.63;93.00;102341.34;10134434;29;20060;-75
2022/10/12 05:29:27;;;;;;;6.05;2.25;;;;;;;2.59;92.76;102344.47;10118470;29;20056;-75
2022/10/12 05:34:29;;;;;;;6.60;2.70;;;;;;;2.53;92.87;102343.13;10112767;29;20048;-75
2022/10/12 05:39:31;;;;;;;9.40;3.28;;;;;;;2.50;92.71;102341.22;10137018;29;20053;-75
2022/10/12 05:44:32;;;;;;;12.77;4.00;;;;;;;2.49;92.79;102342.00;10117673;29;20072;-75
2022/10/12 05:49:34;;;;;;;8.85;3.05;;;;;;;2.47;93.10;102352.22;10117679;29;20056;-76
2022/10/12 05:54:37;;;;;;;9.82;3.13;;;;;;;2.46;92.89;102331.41;10115288;29;20048;-75
2022/10/12 05:59:41;;;;;;;11.00;2.63;;;;;;;2.50;92.84;102343.78;10122354;29;20081;-76
2022/10/12 06:04:43;;;;;;;7.13;2.70;;;;;;;2.50;93.04;102343.78;10107048;29;20052;-75
2022/10/12 06:09:46;;;;;;;10.18;3.00;;;;;;;2.53;92.96;102337.97;10117553;29;20069;-76
2022/10/12 06:14:48;;;;;;;6.53;3.40;;;;;;;2.57;93.34;102335.72;10121789;29;20041;-76
2022/10/12 06:19:50;;;;;;;8.15;3.17;;;;;;;2.60;92.94;102333.34;10114903;29;20061;-75
2022/10/12 06:24:52;;;;;;;9.02;3.00;;;;;;;2.64;93.06;102337.06;10104255;29;20067;-75
2022/10/12 06:29:54;;;;;;;17.98;3.00;;;;;;;2.71;92.98;102335.84;10120835;29;20065;-75
2022/10/12 06:34:55;;;;;;;6.45;2.90;;;;;;;2.83;93.11;102339.31;10117235;29;20056;-76
2022/10/12 06:39:57;;;;;;;7.47;2.63;;;;;;;2.94;93.14;102338.44;10119490;29;20221;-78
2022/10/12 06:44:59;;;;;;;9.57;3.05;;;;;;;3.11;93.28;102341.34;10115076;29;20056;-78
2022/10/12 06:50:01;;;;;;;8.57;3.60;;;;;;;3.29;93.18;102346.94;10117160;29;20071;-80
2022/10/12 06:55:04;;;;;;;10.18;3.58;;;;;;;3.51;93.34;102339.00;10105768;29;20067;-81
2022/10/12 07:00:07;;;;;;;10.65;3.42;;;;;;;3.74;93.12;102337.13;10109538;29;20056;-79
2022/10/12 07:05:08;;;;;;;9.95;4.00;;;;;;;4.07;93.18;102334.25;10117571;29;20055;-80
2022/10/12 07:10:10;;;;;;;11.98;4.82;;;;;;;4.52;93.10;102338.94;10121916;29;20502;-80
2022/10/12 07:15:12;;;;;;;10.63;4.65;;;;;;;5.00;93.53;102335.19;10130828;29;20064;-79
2022/10/12 07:20:14;;;;;;;13.75;5.35;;;;;;;6.47;93.58;102329.50;10117105;29;20116;-79
2022/10/12 07:25:16;;;;;;;16.98;5.93;;;;;;;11.23;92.26;102329.97;10134538;29;20077;-79
2022/10/12 07:30:18;;;;;;;17.65;6.68;;;;;;;11.63;86.62;102338.47;10119498;29;20060;-76
2022/10/12 07:35:20;;;;;;;19.02;6.05;;;;;;;11.84;81.84;102347.16;10123355;29;20564;-77
2022/10/12 07:40:21;;;;;;;14.32;4.60;;;;;;;10.94;79.86;102340.22;10121312;29;20063;-77
2022/10/12 07:45:27;;;;;;;23.27;5.65;;;;;;;14.96;77.10;102335.53;10141419;29;20049;-77
2022/10/12 07:50:29;;;;;;;9.93;4.97;;;;;;;16.68;69.62;102331.06;10120049;29;20052;-77
2022/10/12 07:55:31;;;;;;;12.27;3.85;;;;;;;15.11;67.23;102342.03;10113807;29;20049;-76
2022/10/12 08:00:33;;;;;;;11.02;3.80;;;;;;;13.01;68.02;102344.13;10107103;29;20167;-76
2022/10/12 08:05:36;;;;;;;12.40;3.90;;;;;;;10.69;70.93;102340.91;10145278;29;20044;-76
2022/10/12 08:10:38;;;;;;;13.65;4.20;;;;;;;10.27;74.19;102336.50;10118539;29;20052;-76
2022/10/12 08:15:40;;;;;;;13.63;3.75;;;;;;;11.36;76.10;102335.69;10108883;29;20064;-76
2022/10/12 08:20:42;;;;;;;10.65;3.67;;;;;;;12.36;76.10;102334.13;10121118;29;20077;-76
2022/10/12 08:25:56;;;;;;;15.05;3.35;;;;;;;12.77;75.18;102338.97;10124349;29;20078;-76
2022/10/12 08:30:59;;;;;;;11.50;4.38;;;;;;;13.13;74.70;102330.47;10115745;29;20056;-75
2022/10/12 08:36:03;;;;;;;12.00;3.72;;;;;;;13.66;74.21;102325.06;10109773;29;20057;-76
2022/10/12 08:41:44;;;;;;;16.35;4.43;;;;;;;14.38;72.90;102329.69;10124436;29;20055;-77
2022/10/12 08:46:47;;;;;;;12.82;2.83;;;;;;;14.66;71.43;102331.31;10098679;29;20065;-76
2022/10/12 08:51:56;;;;;;;6.95;2.40;;;;;;;14.30;69.50;102326.84;10130933;29;20052;-76
2022/10/12 08:56:58;;;;;;;;;;;;;;;14.23;69.20;102324.00;10119116;29;20136;-76
2022/10/12 09:02:33;;;;;;;6.82;2.67;;;;;;;13.93;68.64;102320.59;10112330;29;19923;-77
2022/10/12 09:07:49;;;;;;;14.45;3.03;;;;;;;14.06;68.53;102320.94;10136276;29;20040;-76
2022/10/12 09:13:08;;;;;;;14.60;2.28;;;;;;;14.72;67.88;102317.38;10120461;29;20051;-77
2022/10/12 09:18:29;;;;;;;10.63;2.42;;;;;;;14.89;66.86;102316.91;10107819;29;20516;-76
2022/10/12 09:23:37;;;;;;;14.30;2.47;;;;;;;15.10;66.48;102317.41;10104181;29;20119;-76
2022/10/12 09:28:42;;;;;;;9.48;2.78;;;;;;;15.02;65.73;102311.94;10095773;29;20117;-77
2022/10/12 09:34:07;;;;;;;8.75;2.28;;;;;;;15.41;65.58;102307.53;10093007;29;20430;-77
2022/10/12 09:39:18;;;;;;;12.38;2.20;;;;;;;15.54;64.73;102298.13;10096581;29;20052;-78
2022/10/12 09:44:39;;;;;;;10.30;2.55;;;;;;;15.18;63.88;102297.34;10086292;29;20053;-78
2022/10/12 09:49:43;;;;;;;11.20;1.88;;;;;;;14.86;63.58;102291.34;10091446;29;20057;-77
2022/10/12 09:54:52;;;;;;;13.75;1.83;;;;;;;14.72;63.61;102285.75;10106786;29;20037;-76
2022/10/12 09:59:54;;;;;;;6.18;2.05;;;;;;;14.65;62.89;102289.09;10068808;29;20091;-76
2022/10/12 10:05:21;;;;;;;9.02;1.90;;;;;;;14.41;62.49;102279.72;10112907;29;20410;-76
2022/10/12 10:10:24;;;;;;;9.07;2.10;;;;;;;14.78;63.20;102277.09;10095733;29;20061;-76
2022/10/12 10:15:33;;;;;;;10.73;1.75;;;;;;;15.18;62.13;102283.28;10110440;29;20127;-76
2022/10/12 10:20:49;;;;;;;8.10;1.67;;;;;;;15.20;60.94;102269.25;10110961;29;20053;-77
2022/10/12 10:25:55;;;;;;;12.60;1.88;;;;;;;15.24;60.51;102275.50;10102044;29;20096;-78
2022/10/12 10:31:03;;;;;;;8.32;2.00;;;;;;;15.50;60.06;102283.06;10102792;29;20067;-76
2022/10/12 10:36:17;;;;;;;6.43;1.52;;;;;;;15.57;59.71;102277.06;10096384;29;20049;-77
2022/10/12 10:41:19;;;;;;;7.95;1.83;;;;;;;15.87;58.88;102271.50;10092795;29;20064;-77
2022/10/12 10:46:24;;;;;;;6.72;1.45;;;;;;;15.66;58.21;102264.03;10113179;29;20052;-78
2022/10/12 10:52:03;;;;;;;10.00;2.05;;;;;;;15.77;58.50;102268.66;10108151;29;20059;-77
2022/10/12 10:57:08;;;;;;;7.78;1.77;;;;;;;15.92;58.54;102257.50;10016245;29;20049;-78
2022/10/12 11:02:20;;;;;;;4.80;1.17;;;;;;;15.94;58.13;102253.13;10097746;29;20052;-78
2022/10/12 11:07:22;;;;;;;7.63;1.85;;;;;;;15.95;58.28;102245.22;10096166;29;20049;-78
2022/10/12 11:12:34;;;;;;;11.57;2.05;;;;;;;16.05;58.23;102239.25;10112273;29;20060;-78
2022/10/12 11:17:45;;;;;;;8.68;1.63;;;;;;;15.68;57.77;102237.66;10120712;29;20056;-77
2022/10/12 11:23:00;;;;;;;7.03;1.70;;;;;;;15.44;57.78;102232.78;10114171;29;20049;-79
2022/10/12 11:28:01;;;;;;;11.07;1.80;;;;;;;15.73;58.15;102215.78;10117337;29;20580;-78
2022/10/12 11:33:26;;;;;;;7.25;1.40;;;;;;;15.46;58.13;102215.22;10121329;29;20085;-78
2022/10/12 11:38:32;;;;;;;7.72;1.40;;;;;;;15.47;57.94;102207.34;10084092;29;20052;-78
2022/10/12 11:44:03;;;;;;;12.40;1.88;;;;;;;15.50;57.31;102207.41;10108681;29;20048;-77
2022/10/12 11:49:18;;;;;;;9.35;1.40;;;;;;;15.67;57.39;102189.25;10096271;29;21426;-79
2022/10/12 11:54:30;;;;;;;12.98;2.13;;;;;;;16.13;57.56;102181.25;10103853;29;20049;-78
2022/10/12 11:59:40;;;;;;;11.63;1.95;;;;;;;16.13;56.71;102183.03;10073587;29;20565;-79
2022/10/12 12:04:44;;;;;;;7.40;1.20;;;;;;;16.31;56.85;102188.59;10108396;29;20121;-78
2022/10/12 12:09:46;;;;;;;7.30;1.23;;;;;;;16.46;56.13;102179.13;10104173;29;20057;-79
2022/10/12 12:14:54;;;;;;;5.88;1.30;;;;;;;16.35;55.65;102185.13;10085989;29;20063;-78
2022/10/12 12:20:01;;;;;;;8.82;1.77;;;;;;;16.16;54.81;102172.50;10089043;29;20076;-78
2022/10/12 12:25:12;;;;;;;8.20;1.50;;;;;;;16.06;54.58;102171.44;10088510;29;20773;-78
2022/10/12 12:30:16;;;;;;;14.02;2.00;;;;;;;15.81;55.01;102170.16;10086353;29;20052;-78
2022/10/12 12:35:20;;;;;;;7.78;1.45;;;;;;;15.97;55.35;102155.44;10087287;29;20052;-78
2022/10/12 12:40:22;;;;;;;5.20;1.13;;;;;;;16.07;55.01;102142.41;10112108;29;20056;-78
2022/10/12 12:45:31;;;;;;;7.60;1.17;;;;;;;16.04;54.79;102138.84;10118592;29;20052;-78
2022/10/12 12:50:36;;;;;;;5.93;1.20;;;;;;;16.02;54.93;102130.88;10107511;29;20041;-78
2022/10/12 12:56:04;;;;;;;8.85;2.55;;;;;;;16.03;54.90;102123.84;10106300;29;20075;-77
2022/10/12 13:01:21;;;;;;;7.40;1.50;;;;;;;16.14;54.82;102131.94;10099961;29;20104;-78
2022/10/12 13:06:55;;;;;;;7.55;1.23;;;;;;;15.90;54.97;102123.66;10078164;29;20104;-77
2022/10/12 13:12:12;;;;;;;4.50;1.10;;;;;;;15.82;54.86;102117.38;10085003;29;20516;-77
2022/10/12 13:17:48;;;;;;;5.18;1.77;;;;;;;16.07;55.25;102117.75;10108587;29;20073;-79
2022/10/12 13:22:53;;;;;;;9.23;1.60;;;;;;;16.06;54.98;102119.50;10114478;29;20051;-76
2022/10/12 13:27:57;;;;;;;9.07;1.35;;;;;;;16.03;55.26;102114.19;10114851;29;20060;-76
2022/10/12 13:33:08;;;;;;;6.45;1.10;;;;;;;15.71;55.26;102114.50;10110700;29;20513;-76
2022/10/12 13:38:14;;;;;;;5.22;1.30;;;;;;;15.81;55.75;102109.41;10100390;29;20056;-76
2022/10/12 13:43:21;;;;;;;4.40;1.20;;;;;;;15.73;56.09;102096.94;10116535;29;20044;-74
2022/10/12 13:48:24;;;;;;;10.82;1.63;;;;;;;15.79;56.36;102084.72;10102808;29;20108;-74
2022/10/12 13:53:45;;;;;;;7.78;1.50;;;;;;;15.60;56.58;102081.75;10099161;29;20477;-74
2022/10/12 13:58:50;;;;;;;9.07;1.48;;;;;;;15.53;56.95;102070.19;10108971;29;20052;-75
2022/10/12 14:04:03;;;;;;;9.75;1.80;;;;;;;15.39;57.31;102066.44;10112525;29;20139;-76
2022/10/12 14:09:08;;;;;;;8.15;1.70;;;;;;;15.34;57.10;102068.09;10084787;29;20518;-75
2022/10/12 14:14:33;;;;;;;8.95;1.65;;;;;;;15.22;57.27;102058.19;10105889;29;20124;-76
2022/10/12 14:19:43;;;;;;;6.85;1.40;;;;;;;15.10;57.50;102048.34;10101409;29;20048;-74
2022/10/12 14:24:45;;;;;;;4.75;1.40;;;;;;;14.97;56.90;102049.84;10092253;29;20276;-81
2022/10/12 14:30:02;;;;;;;4.60;1.10;;;;;;;14.93;57.08;102034.81;10097577;29;20053;-77
2022/10/12 14:35:21;;;;;;;5.40;1.02;;;;;;;14.80;56.63;102035.44;10090354;29;20053;-75
2022/10/12 14:40:30;;;;;;;5.40;1.15;;;;;;;14.66;56.76;102025.50;10079626;29;20057;-77
2022/10/12 14:45:32;;;;;;;7.80;1.45;;;;;;;14.61;56.98;102024.53;10110186;29;20712;-77
2022/10/12 14:50:34;;;;;;;9.05;1.52;;;;;;;14.60;57.35;102014.81;10117792;29;20465;-77
2022/10/12 14:55:35;;;;;;;5.07;1.40;;;;;;;14.51;57.55;102014.63;10119338;29;20045;-78
2022/10/12 15:00:38;;;;;;;12.05;1.63;;;;;;;14.56;57.38;102005.06;10113734;29;20052;-77
2022/10/12 15:05:39;;;;;;;12.95;1.77;;;;;;;14.54;57.50;102003.25;10115846;29;20083;-77
2022/10/12 15:10:41;;;;;;;11.35;1.40;;;;;;;14.51;57.16;101998.81;10107464;29;20082;-79
2022/10/12 15:15:45;;;;;;;8.43;1.65;;;;;;;14.46;57.84;101988.16;10110113;29;20052;-75
2022/10/12 15:20:48;;;;;;;5.20;1.63;;;;;;;14.46;57.94;101996.06;10108338;29;20089;-79
2022/10/12 15:25:52;;;;;;;7.53;1.80;;;;;;;14.30;58.29;101988.72;10106053;29;20048;-75
2022/10/12 15:31:01;;;;;;;11.60;1.60;;;;;;;14.12;58.84;101984.81;10113928;29;20053;-76
2022/10/12 15:36:18;;;;;;;8.73;1.30;;;;;;;14.03;59.62;101989.91;10114125;29;20047;-76
2022/10/12 15:41:24;;;;;;;8.65;2.08;;;;;;;13.88;60.17;101995.72;10098750;29;20056;-75
2022/10/12 15:46:26;;;;;;;7.85;2.78;;;;;;;13.71;60.55;101995.31;10109883;29;20055;-75
2022/10/12 15:51:27;;;;;;;5.72;1.88;;;;;;;13.54;61.07;101987.03;10117190;29;20060;-76
2022/10/12 15:56:29;;;;;;;6.43;1.55;;;;;;;13.34;61.83;101980.41;10111369;29;20048;-75
2022/10/12 16:01:33;;;;;;;7.25;1.45;;;;;;;13.14;62.41;101978.13;10100039;29;20194;-78
2022/10/12 16:06:35;;;;;;;8.95;2.80;;;;;;;12.85;63.13;101975.63;10109531;29;20049;-77
2022/10/12 16:11:36;;;;;;;8.68;1.50;;;;;;;12.49;64.10;101960.63;10102148;29;20052;-75
2022/10/12 16:16:38;;;;;;;12.57;2.00;;;;;;;12.14;65.64;101967.50;10103281;29;20061;-75
2022/10/12 16:21:40;;;;;;;6.00;1.88;;;;;;;11.78;67.25;101969.00;10094410;29;20075;-75
2022/10/12 16:26:41;;;;;;;9.60;3.58;;;;;;;11.49;68.48;101965.47;10108161;29;20044;-76
2022/10/12 16:31:45;;;;;;;6.70;2.33;;;;;;;11.18;69.80;101964.47;10120018;29;20777;-78
2022/10/12 16:36:48;;;;;;;16.27;2.80;;;;;;;10.94;70.72;101967.16;10118920;29;20065;-79
2022/10/12 16:41:50;;;;;;;9.13;2.90;;;;;;;10.69;71.46;101961.06;10120115;29;20501;-80
2022/10/12 16:46:51;;;;;;;9.70;3.22;;;;;;;10.40;72.17;101960.91;10113411;29;20064;-79
2022/10/12 16:51:53;;;;;;;14.23;3.40;;;;;;;10.21;72.80;101958.44;10115149;29;20065;-77
2022/10/12 16:56:56;;;;;;;9.77;2.78;;;;;;;10.03;73.81;101967.34;10080490;29;20772;-76
2022/10/12 17:01:58;;;;;;;12.32;2.85;;;;;;;9.87;74.48;101970.22;10115640;29;20057;-77
2022/10/12 17:06:59;;;;;;;8.18;2.63;;;;;;;9.71;75.13;101960.84;10106763;29;20055;-76
2022/10/12 17:12:00;;;;;;;8.70;3.17;;;;;;;9.64;76.03;101969.31;10113670;29;20572;-76
2022/10/12 17:17:02;;;;;;;9.90;3.80;;;;;;;9.57;76.52;101962.06;10114568;29;20052;-77
2022/10/12 17:22:05;;;;;;;13.00;5.45;;;;;;;9.54;77.09;101973.28;10116318;29;20056;-75
2022/10/12 17:27:09;;;;;;;25.42;11.68;;;;;;;9.53;77.64;101976.72;10099987;29;20052;-75
2022/10/12 17:32:11;;;;;;;28.70;13.07;;;;;;;9.50;78.12;101973.97;10109357;29;20053;-74
2022/10/12 17:37:14;;;;;;;28.48;10.52;;;;;;;9.48;78.55;101975.66;10106114;29;20083;-76
2022/10/12 17:42:16;;;;;;;17.65;9.80;;;;;;;9.44;78.80;101979.84;10115017;29;20060;-76
2022/10/12 17:47:18;;;;;;;24.63;8.82;;;;;;;9.40;79.03;101977.03;10114085;29;20088;-75
2022/10/12 17:52:20;;;;;;;26.65;12.65;;;;;;;9.33;79.50;101973.28;10103173;29;20068;-74
2022/10/12 17:57:22;;;;;;;21.15;9.43;;;;;;;9.26;79.81;101982.59;10112487;29;20044;-76
2022/10/12 18:02:23;;;;;;;21.02;9.80;;;;;;;9.18;80.12;101973.56;10112213;29;20060;-77
2022/10/12 18:07:25;;;;;;;24.92;10.70;;;;;;;9.10;80.36;101981.06;10106860;29;20493;-76
2022/10/12 18:12:26;;;;;;;25.27;10.57;;;;;;;9.04;80.81;101975.59;10111870;29;20274;-75
2022/10/12 18:17:28;;;;;;;18.83;9.15;;;;;;;8.97;81.18;101973.53;10108709;29;20367;-75
2022/10/12 18:22:29;;;;;;;21.33;9.35;;;;;;;8.91;81.39;101973.28;10112081;29;20405;-77
2022/10/12 18:27:32;;;;;;;32.38;13.07;;;;;;;8.88;81.86;101976.63;10112185;29;20061;-75
2022/10/12 18:32:35;;;;;;;33.92;14.00;;;;;;;8.83;82.24;101967.72;10090464;29;20378;-76
2022/10/12 18:37:36;;;;;;;30.90;11.43;;;;;;;8.83;82.69;101946.84;10106158;29;20048;-77
2022/10/12 18:42:38;;;;;;;28.73;10.32;;;;;;;8.86;82.80;101954.81;10112207;29;20057;-75
2022/10/12 18:47:39;;;;;;;19.45;8.02;;;;;;;8.83;83.20;101939.88;10118059;29;20072;-78
2022/10/12 18:52:41;;;;;;;31.58;7.15;;;;;;;8.82;83.37;101942.44;10116419;29;20497;-74
2022/10/12 18:57:42;;;;;;;25.17;9.43;;;;;;;8.81;83.56;101924.97;10114687;29;20153;-74
2022/10/12 19:02:44;;;;;;;26.85;8.73;;;;;;;8.88;84.04;101923.53;10115075;29;20052;-75
2022/10/12 19:07:46;;;;;;;27.25;11.48;;;;;;;8.89;83.83;101928.81;10110796;29;20112;-75
2022/10/12 19:12:47;;;;;;;21.70;9.23;;;;;;;8.81;83.96;101920.66;10113776;29;20064;-75
2022/10/12 19:17:49;;;;;;;18.23;10.07;;;;;;;8.79;84.22;101917.06;10116224;29;20067;-76
2022/10/12 19:22:50;;;;;;;26.38;10.27;;;;;;;8.79;83.99;101918.78;10122022;29;20048;-76
2022/10/12 19:27:52;;;;;;;17.70;7.93;;;;;;;8.75;84.31;101914.25;10120923;29;20057;-75
2022/10/12 19:32:53;;;;;;;17.20;6.80;;;;;;;8.72;84.10;101908.91;10101303;29;20673;-77
2022/10/12 19:37:55;;;;;;;20.08;8.65;;;;;;;8.66;84.18;101894.78;10109716;29;20121;-76
2022/10/12 19:42:57;;;;;;;21.63;8.27;;;;;;;8.60;84.37;101906.66;10085645;29;20049;-75
2022/10/12 19:47:58;;;;;;;15.60;6.38;;;;;;;8.49;84.04;101888.81;10109886;29;20060;-75
2022/10/12 19:53:00;;;;;;;13.30;5.95;;;;;;;8.40;84.31;101891.00;10113343;29;20052;-76
2022/10/12 19:58:02;;;;;;;16.52;5.95;;;;;;;8.27;84.20;101886.97;10109039;29;20056;-75
2022/10/12 20:03:04;;;;;;;12.80;5.90;;;;;;;8.14;84.30;101867.25;10113892;29;20068;-76
2022/10/12 20:08:05;;;;;;;14.30;5.53;;;;;;;8.07;84.46;101866.94;10119488;29;20584;-78
2022/10/12 20:13:07;;;;;;;16.88;6.32;;;;;;;8.01;84.75;101877.97;10116291;29;20057;-75
2022/10/12 20:18:08;;;;;;;20.30;8.32;;;;;;;7.97;84.93;101863.91;10114779;29;20898;-75
2022/10/12 20:23:10;;;;;;;17.98;6.28;;;;;;;7.99;85.15;101879.63;10114118;29;20424;-78
2022/10/12 20:28:12;;;;;;;14.10;5.32;;;;;;;8.03;85.19;101878.94;10115368;29;20573;-75
2022/10/12 20:33:15;;;;;;;10.32;4.95;;;;;;;8.03;85.27;101870.22;10113291;29;20060;-78
2022/10/12 20:38:17;;;;;;;10.27;4.60;;;;;;;8.04;85.33;101869.41;10106930;29;20056;-75
2022/10/12 20:43:18;;;;;;;13.07;4.82;;;;;;;8.06;85.44;101857.31;10110120;29;20156;-75
2022/10/12 20:48:20;;;;;;;13.63;4.55;;;;;;;8.08;85.48;101863.50;10118771;29;20061;-75
2022/10/12 20:53:22;;;;;;;11.45;5.30;;;;;;;8.08;85.55;101861.78;10085477;29;20053;-76
2022/10/12 20:58:24;;;;;;;17.25;4.75;;;;;;;8.08;85.52;101866.09;10100053;29;20085;-76
2022/10/12 21:03:28;;;;;;;11.43;4.43;;;;;;;8.06;85.82;101862.53;10118382;29;20098;-76
2022/10/12 21:08:30;;;;;;;12.23;4.70;;;;;;;8.06;85.88;101862.53;10096854;29;20053;-74
2022/10/12 21:13:33;;;;;;;14.65;5.18;;;;;;;8.05;85.96;101855.53;10115886;29;20113;-76
2022/10/12 21:18:36;;;;;;;11.07;4.40;;;;;;;8.06;86.14;101862.53;10108357;29;20502;-77
2022/10/12 21:23:40;;;;;;;10.95;4.25;;;;;;;8.06;86.10;101865.13;10099709;29;20727;-74
2022/10/12 21:28:43;;;;;;;11.00;4.22;;;;;;;8.10;86.26;101867.06;10115215;29;20052;-76
2022/10/12 21:33:45;;;;;;;9.02;4.20;;;;;;;8.12;86.28;101860.19;10100069;29;20048;-75
2022/10/12 21:38:48;;;;;;;9.27;4.00;;;;;;;8.16;86.13;101871.66;10107207;29;20048;-74
2022/10/12 21:43:51;;;;;;;9.40;4.35;;;;;;;8.19;86.25;101870.06;10100881;29;20087;-74
2022/10/12 21:48:53;;;;;;;12.75;4.13;;;;;;;8.25;86.10;101859.91;10102841;29;20478;-76
2022/10/12 21:53:55;;;;;;;14.65;4.15;;;;;;;8.31;85.70;101849.72;10100264;29;20575;-76
2022/10/12 21:58:59;;;;;;;9.88;4.28;;;;;;;8.36;85.57;101856.88;10110455;29;21086;-75
2022/10/12 22:04:10;;;;;;;14.88;4.10;;;;;;;8.34;85.54;101855.91;10116593;29;20536;-75
2022/10/12 22:09:15;;;;;;;11.95;4.30;;;;;;;8.30;85.24;101853.19;10090894;29;20410;-77
2022/10/12 22:14:18;;;;;;;9.75;3.80;;;;;;;8.23;85.21;101840.69;10094938;29;20165;-75
2022/10/12 22:19:20;;;;;;;8.63;3.63;;;;;;;8.12;85.22;101831.47;10096515;29;20063;-76
2022/10/12 22:24:22;;;;;;;11.68;4.07;;;;;;;8.00;84.94;101833.56;10092957;29;20068;-77
2022/10/12 22:29:24;;;;;;;12.23;3.72;;;;;;;7.81;84.98;101832.75;10114528;29;20048;-75
2022/10/12 22:34:27;;;;;;;10.52;3.55;;;;;;;7.59;85.15;101817.84;10114416;29;20585;-75
2022/10/12 22:39:28;;;;;;;11.85;4.55;;;;;;;7.38;85.13;101820.34;10107462;29;20389;-75
2022/10/12 22:44:30;;;;;;;11.55;3.78;;;;;;;7.24;85.32;101831.00;10116030;29;20509;-75
2022/10/12 22:49:31;;;;;;;9.38;3.85;;;;;;;7.06;85.48;101830.13;10111671;29;20053;-75
2022/10/12 22:54:33;;;;;;;10.88;3.70;;;;;;;6.90;85.56;101819.00;10107587;29;20053;-75
2022/10/12 22:59:35;;;;;;;10.80;3.58;;;;;;;6.77;85.94;101820.91;10113144;29;20701;-75
2022/10/12 23:04:36;;;;;;;7.78;3.53;;;;;;;6.63;86.05;101808.09;10108689;29;20591;-78
2022/10/12 23:09:40;;;;;;;11.52;3.17;;;;;;;6.54;86.25;101798.16;10111004;29;20045;-75
2022/10/12 23:14:41;;;;;;;11.65;4.03;;;;;;;6.46;86.34;101806.38;10112894;29;20048;-77
2022/10/12 23:19:43;;;;;;;12.98;3.50;;;;;;;6.37;86.67;101809.41;10099913;29;20215;-74
2022/10/12 23:24:45;;;;;;;8.32;3.45;;;;;;;6.25;86.90;101803.59;10097882;29;20143;-74